createdAt,value
2018-09-08T00:01:35.896Z,11.60
2018-09-08T00:04:04.067Z,11.60
2018-09-08T00:06:33.104Z,11.70
2018-09-08T00:09:01.559Z,11.80
2018-09-08T00:11:29.733Z,11.90
2018-09-08T00:13:58.002Z,12.00
2018-09-08T00:16:31.662Z,12.10
2018-09-08T00:19:05.189Z,12.20
2018-09-08T00:21:38.764Z,12.30
2018-09-08T00:24:12.257Z,12.50
2018-09-08T00:26:39.691Z,12.60
2018-09-08T00:29:15.986Z,12.60
2018-09-08T00:31:44.189Z,12.60
2018-09-08T00:34:12.368Z,12.70
2018-09-08T00:36:40.659Z,12.80
2018-09-08T00:39:09.475Z,12.80
2018-09-08T00:41:37.802Z,12.90
2018-09-08T00:44:06.068Z,12.90
2018-09-08T00:46:34.240Z,12.90
2018-09-08T00:49:02.416Z,12.90
2018-09-08T00:51:30.660Z,13.00
2018-09-08T00:53:59.127Z,13.10
2018-09-08T00:56:27.328Z,13.10
2018-09-08T00:59:00.819Z,13.10
2018-09-08T01:01:28.972Z,13.20
2018-09-08T01:03:57.134Z,13.20
2018-09-08T01:06:25.285Z,13.20
2018-09-08T01:08:53.448Z,13.20
2018-09-08T01:11:21.714Z,13.20
2018-09-08T01:13:49.983Z,13.30
2018-09-08T01:16:18.940Z,13.30
2018-09-08T01:18:47.159Z,13.30
2018-09-08T01:21:15.329Z,13.30
2018-09-08T01:23:46.955Z,13.30
2018-09-08T01:26:15.636Z,13.10
2018-09-08T01:28:43.800Z,13.10
2018-09-08T01:31:12.015Z,13.10
2018-09-08T01:33:40.287Z,12.90
2018-09-08T01:36:08.465Z,12.90
2018-09-08T01:38:36.698Z,12.80
2018-09-08T01:41:04.815Z,12.70
2018-09-08T01:43:32.948Z,12.70
2018-09-08T01:46:01.168Z,12.60
2018-09-08T01:48:29.477Z,12.60
2018-09-08T01:50:57.671Z,12.50
2018-09-08T01:53:25.816Z,12.50
2018-09-08T01:55:54.015Z,12.50
2018-09-08T01:58:22.430Z,12.50
2018-09-08T02:00:50.590Z,12.50
2018-09-08T02:03:18.795Z,12.50
2018-09-08T02:05:46.938Z,12.40
2018-09-08T02:08:15.201Z,12.40
2018-09-08T02:10:43.430Z,12.50
2018-09-08T02:13:12.018Z,12.50
2018-09-08T02:15:40.233Z,12.50
2018-09-08T02:18:08.468Z,12.40
2018-09-08T02:20:36.682Z,12.40
2018-09-08T02:23:04.869Z,12.40
2018-09-08T02:25:33.389Z,12.30
2018-09-08T02:28:01.530Z,12.40
2018-09-08T02:30:29.736Z,12.40
2018-09-08T02:32:57.932Z,12.50
2018-09-08T02:35:26.313Z,12.50
2018-09-08T02:37:54.492Z,12.50
2018-09-08T02:40:22.696Z,12.40
2018-09-08T02:42:50.873Z,12.30
2018-09-08T02:45:19.060Z,12.30
2018-09-08T02:47:47.215Z,12.20
2018-09-08T02:50:36.941Z,12.20
2018-09-08T02:53:04.824Z,12.20
2018-09-08T02:55:32.752Z,12.20
2018-09-08T02:58:00.187Z,12.20
2018-09-08T03:00:27.922Z,12.20
2018-09-08T03:02:55.148Z,12.20
2018-09-08T03:05:22.603Z,12.20
2018-09-08T03:07:49.957Z,12.20
2018-09-08T03:10:17.604Z,12.10
2018-09-08T03:12:44.800Z,12.10
2018-09-08T03:15:11.975Z,12.10
2018-09-08T03:17:39.203Z,12.10
2018-09-08T03:20:06.410Z,12.00
2018-09-08T03:22:33.646Z,12.10
2018-09-08T03:25:00.861Z,12.10
2018-09-08T03:27:28.111Z,12.10
2018-09-08T03:29:55.313Z,12.10
2018-09-08T03:32:22.540Z,12.00
2018-09-08T03:34:49.763Z,12.00
2018-09-08T03:37:16.938Z,12.00
2018-09-08T03:39:44.200Z,12.00
2018-09-08T03:42:11.424Z,12.00
2018-09-08T03:44:38.616Z,12.00
2018-09-08T03:47:05.819Z,12.00
2018-09-08T03:49:33.017Z,12.00
2018-09-08T03:52:00.230Z,12.00
2018-09-08T03:54:27.424Z,11.90
2018-09-08T03:56:54.619Z,12.00
2018-09-08T03:59:21.827Z,11.90
2018-09-08T04:01:49.061Z,12.00
2018-09-08T04:04:17.242Z,11.90
2018-09-08T04:06:45.420Z,11.90
2018-09-08T04:09:13.568Z,11.90
2018-09-08T04:11:41.775Z,11.90
2018-09-08T04:14:10.060Z,11.90
2018-09-08T04:16:38.293Z,11.90
2018-09-08T04:19:06.821Z,11.90
2018-09-08T04:21:35.032Z,11.90
2018-09-08T04:24:03.312Z,11.80
2018-09-08T04:26:31.702Z,11.90
2018-09-08T04:28:59.903Z,11.90
2018-09-08T04:31:28.082Z,11.90
2018-09-08T04:33:56.322Z,11.90
2018-09-08T04:36:24.436Z,11.90
2018-09-08T04:38:52.605Z,11.90
2018-09-08T04:41:20.876Z,11.90
2018-09-08T04:43:49.027Z,11.90
2018-09-08T04:46:17.145Z,11.90
2018-09-08T04:48:45.280Z,11.90
2018-09-08T04:51:13.524Z,11.90
2018-09-08T04:53:41.664Z,12.00
2018-09-08T04:56:09.836Z,12.00
2018-09-08T04:58:38.012Z,12.00
2018-09-08T05:01:06.473Z,12.00
2018-09-08T05:03:34.647Z,12.10
2018-09-08T05:06:02.869Z,12.10
2018-09-08T05:08:31.016Z,12.10
2018-09-08T05:10:59.179Z,12.10
2018-09-08T05:13:27.334Z,12.10
2018-09-08T05:15:55.518Z,12.10
2018-09-08T05:18:23.830Z,12.10
2018-09-08T05:20:52.022Z,12.10
2018-09-08T05:23:20.211Z,12.10
2018-09-08T05:25:48.369Z,12.10
2018-09-08T05:28:16.508Z,12.10
2018-09-08T05:30:44.699Z,12.10
2018-09-08T05:33:12.930Z,12.10
2018-09-08T05:35:41.174Z,12.10
2018-09-08T05:38:09.363Z,12.10
2018-09-08T05:40:37.710Z,12.20
2018-09-08T05:43:05.992Z,12.20
2018-09-08T05:45:34.103Z,12.20
2018-09-08T05:48:02.512Z,12.20
2018-09-08T05:50:31.912Z,12.20
2018-09-08T05:53:00.122Z,12.30
2018-09-08T05:55:28.260Z,12.30
2018-09-08T05:57:56.456Z,12.30
2018-09-08T06:00:24.726Z,12.40
2018-09-08T06:02:53.161Z,12.50
2018-09-08T06:05:21.364Z,12.60
2018-09-08T06:07:49.902Z,12.70
2018-09-08T06:10:18.121Z,12.90
2018-09-08T06:12:46.299Z,12.90
2018-09-08T06:15:14.440Z,12.90
2018-09-08T06:17:43.839Z,12.90
2018-09-08T06:20:12.095Z,12.90
2018-09-08T06:22:40.396Z,12.90
2018-09-08T06:25:08.776Z,13.00
2018-09-08T06:27:37.834Z,13.10
2018-09-08T06:30:05.970Z,13.10
2018-09-08T06:32:34.112Z,13.10
2018-09-08T06:35:02.418Z,13.10
2018-09-08T06:37:30.592Z,13.20
2018-09-08T06:39:58.736Z,13.10
2018-09-08T06:42:26.936Z,13.10
2018-09-08T06:44:55.132Z,13.10
2018-09-08T06:47:23.338Z,13.20
2018-09-08T06:49:51.448Z,13.20
2018-09-08T06:52:19.754Z,13.30
2018-09-08T06:54:47.888Z,13.30
2018-09-08T06:57:16.112Z,13.40
2018-09-08T06:59:44.352Z,13.50
2018-09-08T07:02:12.507Z,13.50
2018-09-08T07:04:40.723Z,13.60
2018-09-08T07:07:12.246Z,13.60
2018-09-08T07:09:41.084Z,13.70
2018-09-08T07:12:09.543Z,13.80
2018-09-08T07:14:37.688Z,13.80
2018-09-08T07:17:06.076Z,13.80
2018-09-08T07:19:34.296Z,14.00
2018-09-08T07:22:02.454Z,14.10
2018-09-08T07:24:30.688Z,14.30
2018-09-08T07:26:58.998Z,14.50
2018-09-08T07:29:27.190Z,14.70
2018-09-08T07:32:05.178Z,14.90
2018-09-08T07:34:33.756Z,15.20
2018-09-08T07:37:02.125Z,15.40
2018-09-08T07:39:31.290Z,15.50
2018-09-08T07:41:59.879Z,15.60
2018-09-08T07:44:28.214Z,15.50
2018-09-08T07:46:56.586Z,15.60
2018-09-08T07:49:25.065Z,15.60
2018-09-08T07:51:53.465Z,15.50
2018-09-08T07:54:21.680Z,15.50
2018-09-08T07:56:52.659Z,15.50
2018-09-08T07:59:33.019Z,15.70
2018-09-08T08:02:01.559Z,16.00
2018-09-08T08:04:30.035Z,16.20
2018-09-08T08:06:58.294Z,16.40
2018-09-08T08:09:26.846Z,16.70
2018-09-08T08:11:55.200Z,16.80
2018-09-08T08:14:23.787Z,17.00
2018-09-08T08:16:52.994Z,17.30
2018-09-08T08:19:22.184Z,17.50
2018-09-08T08:21:51.151Z,17.80
2018-09-08T08:24:20.300Z,18.00
2018-09-08T08:26:49.564Z,18.00
2018-09-08T08:29:17.848Z,17.90
2018-09-08T08:31:46.288Z,18.10
2018-09-08T08:34:14.690Z,18.20
2018-09-08T08:36:43.339Z,18.40
2018-09-08T08:39:11.790Z,18.50
2018-09-08T08:41:40.410Z,18.50
2018-09-08T08:44:08.582Z,18.50
2018-09-08T08:46:36.809Z,18.60
2018-09-08T08:49:05.025Z,18.60
2018-09-08T08:51:44.559Z,18.60
2018-09-08T08:54:18.273Z,18.50
2018-09-08T08:56:47.253Z,18.40
2018-09-08T08:59:15.728Z,18.50
2018-09-08T09:01:45.137Z,18.60
2018-09-08T09:04:13.332Z,18.60
2018-09-08T09:06:41.688Z,18.50
2018-09-08T09:09:13.335Z,18.40
2018-09-08T09:11:41.617Z,18.40
2018-09-08T09:14:10.334Z,18.40
2018-09-08T09:16:38.565Z,18.30
2018-09-08T09:19:32.752Z,18.40
2018-09-08T09:22:12.473Z,18.50
2018-09-08T09:24:49.760Z,18.40
2018-09-08T09:27:17.485Z,18.40
2018-09-08T09:29:45.697Z,18.40
2018-09-08T09:32:13.943Z,18.40
2018-09-08T09:34:42.221Z,18.50
2018-09-08T09:37:10.638Z,18.50
2018-09-08T09:39:39.056Z,18.70
2018-09-08T09:42:08.340Z,18.90
2018-09-08T09:44:36.608Z,19.10
2018-09-08T09:47:04.825Z,19.10
2018-09-08T09:49:33.092Z,19.10
2018-09-08T09:52:01.308Z,19.00
2018-09-08T09:54:30.615Z,19.00
2018-09-08T09:56:58.948Z,19.10
2018-09-08T09:59:27.221Z,19.10
2018-09-08T10:02:00.726Z,19.10
2018-09-08T10:04:29.058Z,19.30
2018-09-08T10:06:57.499Z,19.50
2018-09-08T10:09:26.646Z,19.40
2018-09-08T10:11:54.997Z,19.40
2018-09-08T10:14:23.165Z,19.30
2018-09-08T10:16:51.652Z,19.40
2018-09-08T10:19:19.949Z,19.50
2018-09-08T10:21:48.150Z,19.60
2018-09-08T10:24:16.338Z,19.70
2018-09-08T10:26:44.576Z,19.70
2018-09-08T10:29:12.785Z,19.70
2018-09-08T10:31:40.985Z,19.80
2018-09-08T10:34:09.179Z,19.80
2018-09-08T10:36:37.741Z,19.70
2018-09-08T10:39:06.617Z,19.80
2018-09-08T10:41:34.859Z,19.80
2018-09-08T10:44:03.038Z,19.90
2018-09-08T10:46:31.229Z,20.00
2018-09-08T10:48:59.377Z,20.10
2018-09-08T10:51:46.420Z,20.10
2018-09-08T10:54:14.921Z,20.10
2018-09-08T10:56:43.909Z,20.10
2018-09-08T10:59:12.327Z,20.00
2018-09-08T11:01:40.847Z,20.10
2018-09-08T11:04:08.914Z,20.20
2018-09-08T11:06:37.078Z,20.30
2018-09-08T11:09:06.152Z,20.20
2018-09-08T11:11:34.907Z,20.20
2018-09-08T11:14:03.104Z,20.30
2018-09-08T11:16:31.351Z,20.40
2018-09-08T11:18:59.749Z,20.50
2018-09-08T11:21:27.983Z,20.50
2018-09-08T11:23:56.194Z,20.50
2018-09-08T11:26:24.340Z,20.60
2018-09-08T11:28:52.696Z,20.60
2018-09-08T11:31:20.855Z,20.70
2018-09-08T11:33:49.031Z,20.80
2018-09-08T11:36:17.217Z,20.70
2018-09-08T11:38:45.375Z,20.60
2018-09-08T11:41:13.570Z,20.60
2018-09-08T11:43:41.701Z,20.80
2018-09-08T11:46:09.853Z,20.90
2018-09-08T11:48:38.081Z,21.10
2018-09-08T11:51:06.256Z,21.20
2018-09-08T11:53:34.472Z,21.30
2018-09-08T11:56:02.791Z,21.10
2018-09-08T11:58:30.983Z,21.10
2018-09-08T12:00:59.169Z,20.80
2018-09-08T12:03:27.320Z,20.60
2018-09-08T12:05:55.532Z,20.50
2018-09-08T12:08:24.396Z,20.40
2018-09-08T12:10:52.529Z,20.30
2018-09-08T12:13:20.697Z,20.40
2018-09-08T12:15:48.855Z,20.50
2018-09-08T12:18:18.300Z,20.40
2018-09-08T12:20:46.469Z,20.40
2018-09-08T12:23:14.722Z,20.60
2018-09-08T12:25:42.896Z,20.60
2018-09-08T12:28:11.073Z,20.80
2018-09-08T12:30:39.682Z,20.90
2018-09-08T12:33:07.908Z,20.90
2018-09-08T12:35:36.060Z,20.90
2018-09-08T12:38:04.311Z,20.90
2018-09-08T12:40:32.513Z,20.80
2018-09-08T12:43:00.683Z,20.90
2018-09-08T12:45:28.815Z,21.00
2018-09-08T12:47:57.038Z,20.90
2018-09-08T12:50:25.180Z,20.90
2018-09-08T12:52:53.393Z,20.90
2018-09-08T12:55:21.566Z,20.80
2018-09-08T12:57:49.816Z,20.80
2018-09-08T13:00:18.037Z,20.70
2018-09-08T13:02:46.233Z,20.70
2018-09-08T13:05:14.417Z,20.80
2018-09-08T13:07:42.664Z,21.00
2018-09-08T13:10:10.841Z,21.00
2018-09-08T13:12:39.798Z,21.10
2018-09-08T13:15:08.411Z,21.10
2018-09-08T13:17:36.629Z,21.10
2018-09-08T13:20:04.831Z,20.90
2018-09-08T13:22:33.009Z,21.00
2018-09-08T13:25:01.566Z,21.10
2018-09-08T13:27:29.801Z,21.10
2018-09-08T13:29:58.151Z,21.10
2018-09-08T13:32:26.344Z,20.90
2018-09-08T13:34:54.878Z,20.90
2018-09-08T13:37:23.049Z,21.00
2018-09-08T13:39:51.494Z,20.90
2018-09-08T13:42:19.716Z,20.70
2018-09-08T13:44:48.541Z,20.70
2018-09-08T13:47:16.790Z,20.60
2018-09-08T13:49:45.000Z,20.50
2018-09-08T13:52:13.198Z,20.60
2018-09-08T13:54:41.356Z,20.60
2018-09-08T13:57:09.688Z,20.40
2018-09-08T13:59:37.885Z,20.30
2018-09-08T14:02:06.116Z,20.30
2018-09-08T14:04:34.830Z,20.30
2018-09-08T14:07:03.072Z,20.40
2018-09-08T14:09:31.334Z,20.60
2018-09-08T14:11:59.585Z,20.70
2018-09-08T14:14:27.791Z,20.80
2018-09-08T14:16:56.201Z,20.90
2018-09-08T14:19:24.365Z,21.00
2018-09-08T14:21:52.509Z,20.80
2018-09-08T14:24:20.679Z,20.80
2018-09-08T14:26:49.053Z,20.70
2018-09-08T14:29:17.221Z,20.80
2018-09-08T14:31:45.378Z,20.80
2018-09-08T14:34:14.194Z,20.80
2018-09-08T14:36:42.450Z,20.80
2018-09-08T14:39:11.036Z,20.70
2018-09-08T14:41:39.700Z,20.60
2018-09-08T14:44:07.961Z,20.60
2018-09-08T14:46:36.216Z,20.60
2018-09-08T14:49:04.437Z,20.70
2018-09-08T14:51:32.551Z,20.70
2018-09-08T14:54:00.830Z,20.80
2018-09-08T14:56:29.276Z,20.80
2018-09-08T14:58:57.452Z,21.00
2018-09-08T15:01:25.883Z,21.00
2018-09-08T15:03:54.075Z,21.10
2018-09-08T15:06:22.353Z,21.20
2018-09-08T15:08:50.493Z,21.20
2018-09-08T15:11:18.961Z,21.10
2018-09-08T15:13:47.125Z,21.00
2018-09-08T15:16:15.465Z,21.00
2018-09-08T15:18:43.788Z,20.90
2018-09-08T15:21:12.220Z,20.80
2018-09-08T15:23:40.425Z,20.70
2018-09-08T15:26:08.743Z,20.70
2018-09-08T15:28:36.942Z,20.70
2018-09-08T15:31:05.120Z,20.80
2018-09-08T15:33:33.252Z,20.80
2018-09-08T15:36:01.449Z,20.80
2018-09-08T15:38:29.884Z,20.80
2018-09-08T15:40:58.772Z,20.80
2018-09-08T15:43:27.068Z,20.80
2018-09-08T15:45:55.456Z,20.70
2018-09-08T15:48:25.624Z,20.70
2018-09-08T15:50:54.053Z,20.70
2018-09-08T15:53:22.255Z,20.70
2018-09-08T15:55:51.182Z,20.70
2018-09-08T15:58:19.420Z,20.70
2018-09-08T16:00:47.556Z,20.70
2018-09-08T16:03:16.383Z,20.70
2018-09-08T16:05:44.813Z,20.70
2018-09-08T16:08:13.033Z,20.70
2018-09-08T16:10:41.669Z,20.70
2018-09-08T16:13:09.881Z,20.70
2018-09-08T16:15:38.336Z,20.70
2018-09-08T16:18:06.821Z,20.60
2018-09-08T16:20:35.191Z,20.50
2018-09-08T16:23:03.440Z,20.40
2018-09-08T16:25:32.473Z,20.30
2018-09-08T16:28:01.111Z,20.20
2018-09-08T16:30:29.280Z,20.20
2018-09-08T16:32:57.533Z,20.20
2018-09-08T16:35:25.884Z,20.20
2018-09-08T16:37:54.192Z,20.10
2018-09-08T16:40:22.339Z,20.10
2018-09-08T16:42:50.515Z,20.10
2018-09-08T16:45:18.670Z,20.00
2018-09-08T16:47:46.837Z,20.10
2018-09-08T16:50:15.128Z,20.00
2018-09-08T16:52:43.285Z,20.00
2018-09-08T16:55:11.676Z,20.00
2018-09-08T16:57:40.039Z,19.90
2018-09-08T17:00:08.450Z,19.90
2018-09-08T17:02:36.944Z,19.80
2018-09-08T17:05:05.312Z,19.80
2018-09-08T17:07:33.461Z,19.60
2018-09-08T17:10:01.654Z,19.50
2018-09-08T17:12:29.919Z,19.40
2018-09-08T17:14:58.506Z,19.30
2018-09-08T17:17:26.738Z,19.20
2018-09-08T17:19:55.904Z,19.10
2018-09-08T17:22:24.754Z,19.00
2018-09-08T17:24:52.942Z,18.90
2018-09-08T17:27:21.124Z,18.80
2018-09-08T17:29:50.025Z,18.80
2018-09-08T17:32:18.301Z,18.70
2018-09-08T17:34:46.614Z,18.70
2018-09-08T17:37:16.106Z,18.70
2018-09-08T17:39:47.009Z,18.70
2018-09-08T17:42:16.672Z,18.70
2018-09-08T17:44:45.388Z,18.60
2018-09-08T17:47:16.059Z,18.60
2018-09-08T17:49:46.203Z,18.60
2018-09-08T17:52:20.642Z,18.50
2018-09-08T17:54:49.278Z,18.40
2018-09-08T17:57:22.063Z,18.40
2018-09-08T17:59:50.668Z,18.30
2018-09-08T18:02:37.512Z,18.30
2018-09-08T18:08:09.565Z,18.20
2018-09-08T18:17:35.854Z,18.10
2018-09-08T18:25:23.617Z,18.10
2018-09-08T18:27:52.156Z,18.00
2018-09-08T18:30:21.717Z,17.80
2018-09-08T18:32:50.257Z,17.80
2018-09-08T18:35:18.871Z,17.80
2018-09-08T18:37:47.207Z,17.80
2018-09-08T18:40:22.852Z,17.70
2018-09-08T18:42:51.220Z,17.70
2018-09-08T18:45:21.257Z,17.70
2018-09-08T18:47:50.412Z,17.70
2018-09-08T18:50:18.611Z,17.70
2018-09-08T18:52:46.821Z,17.60
2018-09-08T18:55:15.040Z,17.60
2018-09-08T18:57:43.440Z,17.60
2018-09-08T19:00:11.754Z,17.60
2018-09-08T19:02:40.158Z,17.60
2018-09-08T19:05:08.475Z,17.50
2018-09-08T19:07:36.692Z,17.50
2018-09-08T19:10:06.253Z,17.50
2018-09-08T19:12:35.611Z,17.50
2018-09-08T19:15:09.490Z,17.40
2018-09-08T19:17:37.768Z,17.40
2018-09-08T19:20:11.471Z,17.40
2018-09-08T19:22:39.665Z,17.40
2018-09-08T19:25:07.928Z,17.40
2018-09-08T19:27:36.135Z,17.40
2018-09-08T19:30:04.671Z,17.40
2018-09-08T19:32:32.895Z,17.40
2018-09-08T19:35:06.511Z,17.40
2018-09-08T19:37:36.065Z,17.40
2018-09-08T19:40:08.635Z,17.40
2018-09-08T19:42:36.942Z,17.40
2018-09-08T19:45:06.786Z,17.40
2018-09-08T19:47:40.638Z,17.40
2018-09-08T19:50:08.873Z,17.30
2018-09-08T19:52:42.380Z,17.30
2018-09-08T19:55:10.750Z,17.30
2018-09-08T19:57:44.365Z,17.30
2018-09-08T20:00:12.616Z,17.30
2018-09-08T20:02:40.901Z,17.30
2018-09-08T20:05:09.089Z,17.30
2018-09-08T20:07:37.397Z,17.30
2018-09-08T20:10:06.948Z,17.30
2018-09-08T20:12:35.223Z,17.20
2018-09-08T20:15:03.399Z,17.20
2018-09-08T20:17:31.564Z,17.20
2018-09-08T20:19:59.772Z,17.20
2018-09-08T20:22:28.124Z,17.20
2018-09-08T20:24:56.615Z,17.20
2018-09-08T20:27:24.918Z,17.10
2018-09-08T20:29:53.270Z,17.10
2018-09-08T20:32:21.551Z,17.10
2018-09-08T20:34:49.756Z,17.10
2018-09-08T20:37:18.180Z,17.10
2018-09-08T20:39:46.361Z,17.10
2018-09-08T20:42:14.581Z,17.00
2018-09-08T20:44:42.899Z,17.00
2018-09-08T20:47:11.208Z,17.00
2018-09-08T20:49:39.521Z,17.00
2018-09-08T20:52:07.856Z,17.00
2018-09-08T20:54:36.218Z,17.00
2018-09-08T20:57:04.411Z,17.00
2018-09-08T20:59:32.787Z,16.90
2018-09-08T21:02:01.017Z,16.80
2018-09-08T21:04:29.276Z,16.80
2018-09-08T21:06:57.552Z,16.80
2018-09-08T21:09:25.719Z,16.80
2018-09-08T21:11:53.864Z,16.70
2018-09-08T21:14:22.045Z,16.70
2018-09-08T21:16:50.233Z,16.70
2018-09-08T21:19:18.407Z,16.70
2018-09-08T21:21:46.659Z,16.60
2018-09-08T21:24:14.822Z,16.60
2018-09-08T21:26:42.984Z,16.50
2018-09-08T21:29:11.193Z,16.50
2018-09-08T21:31:39.364Z,16.40
2018-09-08T21:34:07.567Z,16.40
2018-09-08T21:36:35.776Z,16.30
2018-09-08T21:39:04.757Z,16.30
2018-09-08T21:41:38.665Z,16.20
2018-09-08T21:44:06.883Z,16.10
2018-09-08T21:46:35.044Z,16.10
2018-09-08T21:49:03.262Z,16.10
2018-09-08T21:51:31.463Z,16.10
2018-09-08T21:53:59.639Z,16.10
2018-09-08T21:56:27.824Z,16.10
2018-09-08T21:58:56.092Z,16.10
2018-09-08T22:01:26.200Z,16.10
2018-09-08T22:03:54.961Z,16.10
2018-09-08T22:06:23.828Z,16.10
2018-09-08T22:08:52.105Z,16.10
2018-09-08T22:11:20.274Z,16.20
2018-09-08T22:13:48.462Z,16.20
2018-09-08T22:16:16.822Z,16.20
2018-09-08T22:18:45.358Z,16.20
2018-09-08T22:21:13.543Z,16.20
2018-09-08T22:23:41.784Z,16.20
2018-09-08T22:26:10.025Z,16.20
2018-09-08T22:28:38.288Z,16.20
2018-09-08T22:31:06.528Z,16.20
2018-09-08T22:33:34.818Z,16.20
2018-09-08T22:36:03.030Z,16.30
2018-09-08T22:38:31.260Z,16.30
2018-09-08T22:40:59.545Z,16.30
2018-09-08T22:43:27.820Z,16.30
2018-09-08T22:45:55.988Z,16.30
2018-09-08T22:48:24.264Z,16.30
2018-09-08T22:50:52.527Z,16.20
2018-09-08T22:53:20.704Z,16.20
2018-09-08T22:55:48.923Z,16.30
2018-09-08T22:58:17.294Z,16.30
2018-09-08T23:00:45.475Z,16.30
2018-09-08T23:03:13.648Z,16.30
2018-09-08T23:05:41.882Z,16.30
2018-09-08T23:08:10.063Z,16.30
2018-09-08T23:10:38.324Z,16.30
2018-09-08T23:13:06.508Z,16.30
2018-09-08T23:15:34.776Z,16.30
2018-09-08T23:18:02.962Z,16.30
2018-09-08T23:20:31.128Z,16.30
2018-09-08T23:22:59.300Z,16.30
2018-09-08T23:25:27.480Z,16.30
2018-09-08T23:27:55.658Z,16.30
2018-09-08T23:30:23.843Z,16.30
2018-09-08T23:32:52.044Z,16.30
2018-09-08T23:35:20.246Z,16.30
2018-09-08T23:37:48.369Z,16.30
2018-09-08T23:40:16.556Z,16.30
2018-09-08T23:42:44.812Z,16.40
2018-09-08T23:45:12.998Z,16.40
2018-09-08T23:47:41.170Z,16.30
2018-09-08T23:50:09.323Z,16.20
2018-09-08T23:52:37.620Z,16.20
2018-09-08T23:55:05.748Z,16.10
2018-09-08T23:57:33.870Z,16.00
